Time;durP1;ratioP1;P1;durP2;ratioP2;P2;SDS_P1;SDS_P2;PMS_P1;PMS_P2;Temp;Humidity;BMP_temperature;BMP_pressure;BME280_temperature;BME280_humidity;BME280_pressure;Samples;Min_cycle;Max_cycle;Signal;HPM_P1;HPM_P2
2023/05/05 00:00:32;;;;;;;;;;;;;;;;;;5070217;28;873;-69
2023/05/05 00:02:58;;;;;;;;;;;;;;;;;;5055223;28;999;-69
2023/05/05 00:05:24;;;;;;;;;;;;;;;;;;5055878;28;849;-68
2023/05/05 00:07:49;;;;;;;;;;;;;;;;;;5069823;28;1057;-69
2023/05/05 00:10:14;;;;;;;;;;;;;;;;;;5054153;28;1910;-68
2023/05/05 00:12:40;;;;;;;;;;;;;;;;;;5054596;28;1018;-69
2023/05/05 00:15:06;;;;;;;;;;;;;;;;;;5069324;28;861;-69
2023/05/05 00:17:31;;;;;;;;;;;;;;;;;;5054341;28;890;-69
2023/05/05 00:19:58;;;;;;;;;;;;;;;;;;5068978;28;1070;-69
2023/05/05 00:22:24;;;;;;;;;;;;;;;;;;5068979;28;825;-69
2023/05/05 00:24:49;;;;;;;;;;;;;;;;;;5068883;28;876;-68
2023/05/05 00:27:14;;;;;;;;;;;;;;;;;;5053300;28;817;-69
2023/05/05 00:29:40;;;;;;;;;;;;;;;;;;5053219;28;1973;-70
2023/05/05 00:32:05;;;;;;;;;;;;;;;;;;5052938;28;861;-69
2023/05/05 00:34:31;;;;;;;;;;;;;;;;;;5069038;28;1388;-70
2023/05/05 00:36:56;;;;;;;;;;;;;;;;;;5052956;28;1004;-69
2023/05/05 00:39:21;;;;;;;;;;;;;;;;;;5085554;28;1292;-70
2023/05/05 00:41:46;;;;;;;;;;;;;;;;;;5053012;28;817;-70
2023/05/05 00:44:12;;;;;;;;;;;;;;;;;;5052953;28;932;-70
2023/05/05 00:46:38;;;;;;;;;;;;;;;;;;5068674;28;938;-70
2023/05/05 00:49:03;;;;;;;;;;;;;;;;;;5068981;28;1331;-69
2023/05/05 00:51:28;;;;;;;;;;;;;;;;;;5068463;28;1905;-69
2023/05/05 00:53:54;;;;;;;;;;;;;;;;;;5052580;28;841;-70
2023/05/05 00:56:20;;;;;;;;;;;;;;;;;;5053097;28;878;-69
2023/05/05 00:58:46;;;;;;;;;;;;;;;;;;5085082;28;1308;-69
2023/05/05 01:01:11;;;;;;;;;;;;;;;;;;5052728;28;919;-69
2023/05/05 01:03:37;;;;;;;;;;;;;;;;;;5052971;28;923;-69
2023/05/05 01:06:03;;;;;;;;;;;;;;;;;;5084939;28;1198;-70
2023/05/05 01:08:36;;;;;;;;;;;;;;;;;;5052664;28;931;-69
2023/05/05 01:11:13;;;;;;;;;;;;;;;;;;5084488;28;1901;-69
2023/05/05 01:13:38;;;;;;;;;;;;;;;;;;5052554;28;1011;-70
2023/05/05 01:16:10;;;;;;;;;;;;;;;;;;5052402;28;853;-69
2023/05/05 01:18:38;;;;;;;;;;;;;;;;;;5052731;28;924;-70
2023/05/05 01:21:13;;;;;;;;;;;;;;;;;;5052524;28;939;-70
2023/05/05 01:23:51;;;;;;;;;;;;;;;;;;5085118;28;1213;-69
2023/05/05 01:26:35;;;;;;;;;;;;;;;;;;5085267;28;1336;-70
2023/05/05 01:29:25;;;;;;;;;;;;;;;;;;5052417;28;990;-70
2023/05/05 01:31:52;;;;;;;;;;;;;;;;;;5053416;28;840;-69
2023/05/05 01:34:26;;;;;;;;;;;;;;;;;;5053187;28;919;-69
2023/05/05 01:37:04;;;;;;;;;;;;;;;;;;5052973;28;898;-69
2023/05/05 01:39:32;;;;;;;;;;;;;;;;;;5085160;28;1117;-70
2023/05/05 01:42:01;;;;;;;;;;;;;;;;;;5053167;28;1069;-62
2023/05/05 01:44:27;;;;;;;;;;;;;;;;;;5085115;28;1364;-62
2023/05/05 01:46:53;;;;;;;;;;;;;;;;;;5052719;28;848;-62
2023/05/05 01:49:19;;;;;;;;;;;;;;;;;;5053216;28;1972;-70
2023/05/05 01:51:45;;;;;;;;;;;;;;;;;;5052960;28;857;-69
2023/05/05 01:54:12;;;;;;;;;;;;;;;;;;5067901;28;809;-70
2023/05/05 01:56:38;;;;;;;;;;;;;;;;;;5068086;28;1026;-70
2023/05/05 01:59:05;;;;;;;;;;;;;;;;;;5067709;28;1300;-69
2023/05/05 02:01:32;;;;;;;;;;;;;;;;;;5085168;28;1225;-70
2023/05/05 02:03:58;;;;;;;;;;;;;;;;;;5053695;28;1058;-69
2023/05/05 02:06:24;;;;;;;;;;;;;;;;;;5056231;28;932;-70
2023/05/05 02:08:51;;;;;;;;;;;;;;;;;;5055954;28;848;-70
2023/05/05 02:11:17;;;;;;;;;;;;;;;;;;5055726;28;1916;-70
2023/05/05 02:13:43;;;;;;;;;;;;;;;;;;5056357;28;1003;-69
2023/05/05 02:16:09;;;;;;;;;;;;;;;;;;5055779;28;832;-70
2023/05/05 02:18:36;;;;;;;;;;;;;;;;;;5071648;28;1322;-70
2023/05/05 02:21:02;;;;;;;;;;;;;;;;;;5055489;28;923;-69
2023/05/05 02:23:27;;;;;;;;;;;;;;;;;;5056144;28;944;-69
2023/05/05 02:25:56;;;;;;;;;;;;;;;;;;5071455;28;841;-70
2023/05/05 02:28:25;;;;;;;;;;;;;;;;;;5055199;28;900;-69
2023/05/05 02:30:56;;;;;;;;;;;;;;;;;;5055661;28;1894;-70
2023/05/05 02:33:22;;;;;;;;;;;;;;;;;;5055538;28;750;-69
2023/05/05 02:35:48;;;;;;;;;;;;;;;;;;5087584;28;1409;-69
2023/05/05 02:38:18;;;;;;;;;;;;;;;;;;5055947;28;750;-70
2023/05/05 02:40:46;;;;;;;;;;;;;;;;;;5089279;28;1197;-70
2023/05/05 02:43:14;;;;;;;;;;;;;;;;;;5055892;28;961;-70
2023/05/05 02:45:39;;;;;;;;;;;;;;;;;;5055668;28;1006;-70
2023/05/05 02:48:05;;;;;;;;;;;;;;;;;;5055282;28;877;-69
2023/05/05 02:50:30;;;;;;;;;;;;;;;;;;5056210;28;2447;-69
2023/05/05 02:53:00;;;;;;;;;;;;;;;;;;5071387;28;1181;-70
2023/05/05 02:55:29;;;;;;;;;;;;;;;;;;5071776;28;1213;-70
2023/05/05 02:58:17;;;;;;;;;;;;;;;;;;5071175;28;1157;-69
2023/05/05 03:00:46;;;;;;;;;;;;;;;;;;5087441;28;1340;-69
2023/05/05 03:03:20;;;;;;;;;;;;;;;;;;5055640;28;841;-70
2023/05/05 03:06:04;;;;;;;;;;;;;;;;;;5056721;28;904;-69
2023/05/05 03:08:35;;;;;;;;;;;;;;;;;;5056265;28;628;-70
2023/05/05 03:11:05;;;;;;;;;;;;;;;;;;5087847;28;1905;-70
2023/05/05 03:13:31;;;;;;;;;;;;;;;;;;5055671;28;939;-70
2023/05/05 03:15:57;;;;;;;;;;;;;;;;;;5054267;28;802;-69
2023/05/05 03:18:23;;;;;;;;;;;;;;;;;;5087599;28;1248;-70
2023/05/05 03:20:49;;;;;;;;;;;;;;;;;;5060609;28;900;-69
2023/05/05 03:23:19;;;;;;;;;;;;;;;;;;5070425;28;1490;-62
2023/05/05 03:25:46;;;;;;;;;;;;;;;;;;5070717;28;1367;-62
2023/05/05 03:28:11;;;;;;;;;;;;;;;;;;5054338;28;1058;-62
2023/05/05 03:30:36;;;;;;;;;;;;;;;;;;5054777;28;1977;-62
2023/05/05 03:33:02;;;;;;;;;;;;;;;;;;5054035;28;900;-62
2023/05/05 03:35:27;;;;;;;;;;;;;;;;;;5069476;28;981;-62
2023/05/05 03:37:54;;;;;;;;;;;;;;;;;;5054703;28;908;-62
2023/05/05 03:40:19;;;;;;;;;;;;;;;;;;5068782;28;849;-62
2023/05/05 03:42:45;;;;;;;;;;;;;;;;;;5053822;28;912;-62
2023/05/05 03:45:11;;;;;;;;;;;;;;;;;;5069400;28;1452;-62
2023/05/05 03:47:36;;;;;;;;;;;;;;;;;;5053443;28;856;-62
2023/05/05 03:50:01;;;;;;;;;;;;;;;;;;5068928;28;1977;-61
2023/05/05 03:52:27;;;;;;;;;;;;;;;;;;5053540;28;892;-62
2023/05/05 03:54:53;;;;;;;;;;;;;;;;;;5068592;28;1146;-61
2023/05/05 03:57:18;;;;;;;;;;;;;;;;;;5068999;28;1261;-62
2023/05/05 03:59:43;;;;;;;;;;;;;;;;;;5086533;28;1178;-61
2023/05/05 04:02:08;;;;;;;;;;;;;;;;;;5068477;28;1120;-61
2023/05/05 04:04:34;;;;;;;;;;;;;;;;;;5053420;28;829;-62
2023/05/05 04:06:59;;;;;;;;;;;;;;;;;;5053450;28;892;-62
2023/05/05 04:09:24;;;;;;;;;;;;;;;;;;5084581;28;1914;-62
2023/05/05 04:11:50;;;;;;;;;;;;;;;;;;5053325;28;1011;-61
2023/05/05 04:14:15;;;;;;;;;;;;;;;;;;5052927;28;1016;-62
2023/05/05 04:16:40;;;;;;;;;;;;;;;;;;5068542;28;923;-62
2023/05/05 04:19:06;;;;;;;;;;;;;;;;;;5052733;28;920;-62
2023/05/05 04:21:31;;;;;;;;;;;;;;;;;;5052688;28;912;-61
2023/05/05 04:23:57;;;;;;;;;;;;;;;;;;5053249;28;904;-61
2023/05/05 04:26:22;;;;;;;;;;;;;;;;;;5052528;28;848;-61
2023/05/05 04:28:47;;;;;;;;;;;;;;;;;;5052967;28;919;-61
2023/05/05 04:31:13;;;;;;;;;;;;;;;;;;5052668;28;1976;-61
2023/05/05 04:33:38;;;;;;;;;;;;;;;;;;5053293;28;904;-62
2023/05/05 04:36:03;;;;;;;;;;;;;;;;;;5085408;28;1205;-62
2023/05/05 04:38:29;;;;;;;;;;;;;;;;;;5068231;28;1278;-61
2023/05/05 04:40:54;;;;;;;;;;;;;;;;;;5053494;28;867;-61
2023/05/05 04:43:19;;;;;;;;;;;;;;;;;;5068414;28;1126;-61
2023/05/05 04:45:52;;;;;;;;;;;;;;;;;;5085716;28;1213;-61
2023/05/05 04:48:19;;;;;;;;;;;;;;;;;;5052881;28;825;-62
2023/05/05 04:50:44;;;;;;;;;;;;;;;;;;5053777;28;1902;-61
2023/05/05 04:53:10;;;;;;;;;;;;;;;;;;5053236;28;813;-61
2023/05/05 04:55:35;;;;;;;;;;;;;;;;;;5053147;28;1002;-61
2023/05/05 04:58:00;;;;;;;;;;;;;;;;;;5053135;28;880;-61
2023/05/05 05:00:26;;;;;;;;;;;;;;;;;;5052743;28;1059;-61
2023/05/05 05:02:52;;;;;;;;;;;;;;;;;;5068012;28;1132;-61
2023/05/05 05:05:18;;;;;;;;;;;;;;;;;;5052183;28;1018;-61
2023/05/05 05:07:43;;;;;;;;;;;;;;;;;;5052981;28;863;-63
2023/05/05 05:10:08;;;;;;;;;;;;;;;;;;5067379;28;1991;-62
2023/05/05 05:12:34;;;;;;;;;;;;;;;;;;5067725;28;868;-63
2023/05/05 05:14:59;;;;;;;;;;;;;;;;;;5067416;28;1210;-63
2023/05/05 05:17:25;;;;;;;;;;;;;;;;;;5050979;28;1073;-60
2023/05/05 05:19:51;;;;;;;;;;;;;;;;;;5051835;28;1165;-61
2023/05/05 05:22:16;;;;;;;;;;;;;;;;;;5051832;28;1234;-61
2023/05/05 05:24:41;;;;;;;;;;;;;;;;;;5084996;28;1336;-62
2023/05/05 05:27:08;;;;;;;;;;;;;;;;;;5067819;28;1319;-61
2023/05/05 05:29:33;;;;;;;;;;;;;;;;;;5052381;28;1973;-61
2023/05/05 05:31:59;;;;;;;;;;;;;;;;;;5052338;28;908;-61
2023/05/05 05:34:24;;;;;;;;;;;;;;;;;;5067192;28;1277;-61
2023/05/05 05:36:50;;;;;;;;;;;;;;;;;;5068648;28;1454;-62
2023/05/05 05:39:15;;;;;;;;;;;;;;;;;;5086815;28;1186;-62
2023/05/05 05:41:41;;;;;;;;;;;;;;;;;;5071755;28;875;-62
2023/05/05 05:44:06;;;;;;;;;;;;;;;;;;5088314;28;1455;-62
2023/05/05 05:46:31;;;;;;;;;;;;;;;;;;5056318;28;841;-62
2023/05/05 05:48:57;;;;;;;;;;;;;;;;;;5071860;28;967;-62
2023/05/05 05:51:22;;;;;;;;;;;;;;;;;;5071393;28;1957;-62
2023/05/05 05:53:47;;;;;;;;;;;;;;;;;;5071638;28;873;-62
2023/05/05 05:56:12;;;;;;;;;;;;;;;;;;5088022;28;1210;-63
2023/05/05 05:58:38;;;;;;;;;;;;;;;;;;5055008;28;880;-62
2023/05/05 06:01:04;;;;;;;;;;;;;;;;;;5049998;28;1144;-62
2023/05/05 06:03:29;;;;;;;;;;;;;;;;;;5033956;28;1231;-60
2023/05/05 06:05:54;;;;;;;;;;;;;;;;;;5038816;28;1160;-61
2023/05/05 06:08:20;;;;;;;;;;;;;;;;;;5053818;28;851;-61
2023/05/05 06:10:47;;;;;;;;;;;;;;;;;;5055183;28;1967;-61
2023/05/05 06:13:12;;;;;;;;;;;;;;;;;;5071585;28;813;-61
2023/05/05 06:15:37;;;;;;;;;;;;;;;;;;5056019;28;1231;-61
2023/05/05 06:18:03;;;;;;;;;;;;;;;;;;5071144;28;611;-61
2023/05/05 06:20:28;;;;;;;;;;;;;;;;;;5088184;28;1201;-60
2023/05/05 06:22:53;;;;;;;;;;;;;;;;;;5056249;28;852;-69
2023/05/05 06:25:18;;;;;;;;;;;;;;;;;;5071719;28;1217;-69
2023/05/05 06:27:44;;;;;;;;;;;;;;;;;;5056449;28;843;-69
2023/05/05 06:30:09;;;;;;;;;;;;;;;;;;5071803;28;1971;-69
2023/05/05 06:32:34;;;;;;;;;;;;;;;;;;5071421;28;841;-69
2023/05/05 06:35:00;;;;;;;;;;;;;;;;;;5071706;28;891;-69
2023/05/05 06:37:25;;;;;;;;;;;;;;;;;;5055422;28;1080;-68
2023/05/05 06:39:50;;;;;;;;;;;;;;;;;;5055533;28;809;-69
2023/05/05 06:42:16;;;;;;;;;;;;;;;;;;5056190;28;959;-68
2023/05/05 06:44:41;;;;;;;;;;;;;;;;;;5087846;28;1225;-69
2023/05/05 06:47:06;;;;;;;;;;;;;;;;;;5070283;28;962;-69
2023/05/05 06:49:31;;;;;;;;;;;;;;;;;;5086981;28;1894;-69
2023/05/05 06:51:57;;;;;;;;;;;;;;;;;;5087281;28;1293;-69
2023/05/05 06:54:22;;;;;;;;;;;;;;;;;;5070625;28;896;-69
2023/05/05 06:56:47;;;;;;;;;;;;;;;;;;5054400;28;856;-69
2023/05/05 06:59:12;;;;;;;;;;;;;;;;;;5070884;28;828;-69
2023/05/05 07:01:38;;;;;;;;;;;;;;;;;;5069907;28;1515;-69
2023/05/05 07:04:03;;;;;;;;;;;;;;;;;;5069040;28;860;-69
2023/05/05 07:06:28;;;;;;;;;;;;;;;;;;5086990;28;1225;-68
2023/05/05 07:08:54;;;;;;;;;;;;;;;;;;5070127;28;1249;-69
2023/05/05 07:11:19;;;;;;;;;;;;;;;;;;5069404;28;1918;-69
2023/05/05 07:13:45;;;;;;;;;;;;;;;;;;5070446;28;884;-69
2023/05/05 07:16:10;;;;;;;;;;;;;;;;;;5069625;28;1099;-69
2023/05/05 07:18:35;;;;;;;;;;;;;;;;;;5054009;28;884;-69
2023/05/05 07:21:01;;;;;;;;;;;;;;;;;;5069491;28;892;-69
2023/05/05 07:23:26;;;;;;;;;;;;;;;;;;5052944;28;885;-69
2023/05/05 07:25:53;;;;;;;;;;;;;;;;;;5069505;28;1185;-69
2023/05/05 07:28:18;;;;;;;;;;;;;;;;;;5053962;28;927;-69
2023/05/05 07:30:43;;;;;;;;;;;;;;;;;;5069438;28;1955;-69
2023/05/05 07:33:10;;;;;;;;;;;;;;;;;;5053769;28;928;-69
2023/05/05 07:35:35;;;;;;;;;;;;;;;;;;5054112;28;952;-68
2023/05/05 07:38:01;;;;;;;;;;;;;;;;;;5069988;28;1035;-69
2023/05/05 07:40:26;;;;;;;;;;;;;;;;;;5054608;28;841;-69
2023/05/05 07:42:51;;;;;;;;;;;;;;;;;;5054836;28;884;-69
2023/05/05 07:45:17;;;;;;;;;;;;;;;;;;5069931;28;956;-69
2023/05/05 07:47:42;;;;;;;;;;;;;;;;;;5054495;28;927;-69
2023/05/05 07:50:07;;;;;;;;;;;;;;;;;;5069963;28;1898;-69
2023/05/05 07:52:32;;;;;;;;;;;;;;;;;;5054121;28;967;-69
2023/05/05 07:54:58;;;;;;;;;;;;;;;;;;5086415;28;1198;-69
2023/05/05 07:57:23;;;;;;;;;;;;;;;;;;5054197;28;904;-69
2023/05/05 07:59:48;;;;;;;;;;;;;;;;;;5053610;28;848;-68
2023/05/05 08:02:14;;;;;;;;;;;;;;;;;;5068327;28;1194;-69
2023/05/05 08:04:39;;;;;;;;;;;;;;;;;;5052627;28;849;-69
2023/05/05 08:07:06;;;;;;;;;;;;;;;;;;5067111;28;1384;-69
2023/05/05 08:09:32;;;;;;;;;;;;;;;;;;5052339;28;1959;-68
2023/05/05 08:11:57;;;;;;;;;;;;;;;;;;5052982;28;1196;-69
2023/05/05 08:14:22;;;;;;;;;;;;;;;;;;5052879;28;845;-69
2023/05/05 08:16:48;;;;;;;;;;;;;;;;;;5052656;28;919;-69
2023/05/05 08:19:13;;;;;;;;;;;;;;;;;;5052608;28;837;-68
2023/05/05 08:21:38;;;;;;;;;;;;;;;;;;5068234;28;955;-69
2023/05/05 08:24:03;;;;;;;;;;;;;;;;;;5052806;28;813;-69
2023/05/05 08:26:29;;;;;;;;;;;;;;;;;;5052956;28;915;-69
2023/05/05 08:28:59;;;;;;;;;;;;;;;;;;5052785;28;840;-69
2023/05/05 08:31:24;;;;;;;;;;;;;;;;;;5052426;28;1894;-69
2023/05/05 08:33:50;;;;;;;;;;;;;;;;;;5068100;28;832;-69
2023/05/05 08:36:15;;;;;;;;;;;;;;;;;;5052821;28;989;-69
2023/05/05 08:38:41;;;;;;;;;;;;;;;;;;5085212;28;1332;-69
2023/05/05 08:41:08;;;;;;;;;;;;;;;;;;5053002;28;856;-69
2023/05/05 08:43:35;;;;;;;;;;;;;;;;;;5053130;28;793;-69
2023/05/05 08:46:01;;;;;;;;;;;;;;;;;;5052456;28;797;-69
2023/05/05 08:48:27;;;;;;;;;;;;;;;;;;5052798;28;833;-69
2023/05/05 08:50:54;;;;;;;;;;;;;;;;;;5052419;28;1971;-69
2023/05/05 08:53:32;;;;;;;;;;;;;;;;;;5052756;28;896;-69
2023/05/05 08:55:58;;;;;;;;;;;;;;;;;;5052459;28;920;-69
2023/05/05 08:58:23;;;;;;;;;;;;;;;;;;5052508;28;912;-69
2023/05/05 09:00:49;;;;;;;;;;;;;;;;;;5052721;28;963;-69
2023/05/05 09:03:15;;;;;;;;;;;;;;;;;;5068749;28;1035;-69
2023/05/05 09:05:43;;;;;;;;;;;;;;;;;;5086012;28;1360;-69
2023/05/05 09:08:12;;;;;;;;;;;;;;;;;;5068775;28;1256;-69
2023/05/05 09:10:41;;;;;;;;;;;;;;;;;;5068741;28;1910;-69
2023/05/05 09:13:06;;;;;;;;;;;;;;;;;;5085751;28;1312;-69
2023/05/05 09:15:32;;;;;;;;;;;;;;;;;;5085659;28;1303;-69
2023/05/05 09:17:58;;;;;;;;;;;;;;;;;;5053470;28;837;-69
2023/05/05 09:20:23;;;;;;;;;;;;;;;;;;5068123;28;1310;-69
2023/05/05 09:22:48;;;;;;;;;;;;;;;;;;5051882;28;1461;-69
2023/05/05 09:25:15;;;;;;;;;;;;;;;;;;5052634;28;849;-69
2023/05/05 09:27:42;;;;;;;;;;;;;;;;;;5068232;28;790;-69
2023/05/05 09:30:08;;;;;;;;;;;;;;;;;;5052504;28;1910;-69
2023/05/05 09:32:47;;;;;;;;;;;;;;;;;;5067735;28;909;-69
2023/05/05 09:35:13;;;;;;;;;;;;;;;;;;5084645;28;1189;-69
2023/05/05 09:37:38;;;;;;;;;;;;;;;;;;5052481;28;879;-69
2023/05/05 09:40:04;;;;;;;;;;;;;;;;;;5052152;28;880;-69
2023/05/05 09:42:29;;;;;;;;;;;;;;;;;;5052360;28;903;-69
2023/05/05 09:44:55;;;;;;;;;;;;;;;;;;5052010;28;891;-69
2023/05/05 09:47:20;;;;;;;;;;;;;;;;;;5067346;28;1280;-69
2023/05/05 09:49:55;;;;;;;;;;;;;;;;;;5067652;28;1874;-69
2023/05/05 09:52:20;;;;;;;;;;;;;;;;;;5051759;28;915;-69
2023/05/05 09:54:52;;;;;;;;;;;;;;;;;;5051490;28;971;-70
2023/05/05 09:57:46;;;;;;;;;;;;;;;;;;5084326;28;1268;-69
2023/05/05 10:00:11;;;;;;;;;;;;;;;;;;5052440;28;1019;-70
2023/05/05 10:02:37;;;;;;;;;;;;;;;;;;5067254;28;908;-70
2023/05/05 10:05:08;;;;;;;;;;;;;;;;;;5051712;28;916;-69
2023/05/05 10:07:34;;;;;;;;;;;;;;;;;;5052301;28;907;-69
2023/05/05 10:09:59;;;;;;;;;;;;;;;;;;5066781;28;1953;-69
2023/05/05 10:12:25;;;;;;;;;;;;;;;;;;5051706;28;943;-69
2023/05/05 10:14:54;;;;;;;;;;;;;;;;;;5052174;28;888;-69
2023/05/05 10:17:21;;;;;;;;;;;;;;;;;;5051890;28;837;-69
2023/05/05 10:19:48;;;;;;;;;;;;;;;;;;5052425;28;935;-69
2023/05/05 10:22:14;;;;;;;;;;;;;;;;;;5051589;28;868;-70
2023/05/05 10:24:39;;;;;;;;;;;;;;;;;;5086211;28;1213;-69
2023/05/05 10:27:13;;;;;;;;;;;;;;;;;;5088050;28;1131;-69
2023/05/05 10:29:46;;;;;;;;;;;;;;;;;;5071000;28;1926;-69
2023/05/05 10:32:20;;;;;;;;;;;;;;;;;;5054976;28;848;-70
2023/05/05 10:34:51;;;;;;;;;;;;;;;;;;5071389;28;1207;-69
2023/05/05 10:37:18;;;;;;;;;;;;;;;;;;5058089;28;983;-70
2023/05/05 10:39:43;;;;;;;;;;;;;;;;;;5056167;28;983;-69
2023/05/05 10:42:09;;;;;;;;;;;;;;;;;;5054957;28;853;-69
2023/05/05 10:44:35;;;;;;;;;;;;;;;;;;5069962;28;1081;-69
2023/05/05 10:47:00;;;;;;;;;;;;;;;;;;5054803;28;860;-69
2023/05/05 10:49:38;;;;;;;;;;;;;;;;;;5054470;28;860;-69
2023/05/05 10:52:03;;;;;;;;;;;;;;;;;;5087722;28;1404;-69
2023/05/05 10:54:33;;;;;;;;;;;;;;;;;;5056220;28;875;-69
2023/05/05 10:57:03;;;;;;;;;;;;;;;;;;5055999;28;896;-69
2023/05/05 10:59:34;;;;;;;;;;;;;;;;;;5055255;28;903;-69
2023/05/05 11:02:00;;;;;;;;;;;;;;;;;;5055455;28;892;-70
2023/05/05 11:04:25;;;;;;;;;;;;;;;;;;5070263;28;947;-69
2023/05/05 11:07:09;;;;;;;;;;;;;;;;;;5055797;28;852;-70
2023/05/05 11:09:37;;;;;;;;;;;;;;;;;;5054439;28;1964;-70
2023/05/05 11:12:06;;;;;;;;;;;;;;;;;;5055000;28;1204;-69
2023/05/05 11:14:31;;;;;;;;;;;;;;;;;;5069993;28;1093;-69
2023/05/05 11:16:56;;;;;;;;;;;;;;;;;;5054608;28;991;-70
2023/05/05 11:19:40;;;;;;;;;;;;;;;;;;5054510;28;932;-69
2023/05/05 11:22:06;;;;;;;;;;;;;;;;;;5054366;28;845;-69
2023/05/05 11:24:32;;;;;;;;;;;;;;;;;;5053528;28;928;-69
2023/05/05 11:26:57;;;;;;;;;;;;;;;;;;5069290;28;892;-70
2023/05/05 11:29:22;;;;;;;;;;;;;;;;;;5069026;28;821;-69
2023/05/05 11:32:06;;;;;;;;;;;;;;;;;;5069494;28;1913;-69
2023/05/05 11:34:32;;;;;;;;;;;;;;;;;;5054049;28;861;-69
2023/05/05 11:37:02;;;;;;;;;;;;;;;;;;5052942;28;963;-69
2023/05/05 11:39:42;;;;;;;;;;;;;;;;;;5086043;28;1313;-70
2023/05/05 11:42:16;;;;;;;;;;;;;;;;;;5069308;28;1526;-69
2023/05/05 11:44:41;;;;;;;;;;;;;;;;;;5054332;28;896;-69
2023/05/05 11:47:07;;;;;;;;;;;;;;;;;;5053593;28;923;-69
2023/05/05 11:49:33;;;;;;;;;;;;;;;;;;5053774;28;837;-69
2023/05/05 11:51:59;;;;;;;;;;;;;;;;;;5068982;28;1296;-69
2023/05/05 11:54:25;;;;;;;;;;;;;;;;;;5053633;28;904;-69
2023/05/05 11:56:52;;;;;;;;;;;;;;;;;;5086155;28;1377;-69
2023/05/05 11:59:17;;;;;;;;;;;;;;;;;;5053914;28;809;-69
2023/05/05 12:01:42;;;;;;;;;;;;;;;;;;5054663;28;849;-69
2023/05/05 12:04:11;;;;;;;;;;;;;;;;;;5069440;28;1159;-70
2023/05/05 12:06:37;;;;;;;;;;;;;;;;;;5054921;28;821;-70
2023/05/05 12:09:03;;;;;;;;;;;;;;;;;;5054230;28;936;-69
2023/05/05 12:11:28;;;;;;;;;;;;;;;;;;5086033;28;1956;-69
2023/05/05 12:14:07;;;;;;;;;;;;;;;;;;5086416;28;1299;-70
2023/05/05 12:16:32;;;;;;;;;;;;;;;;;;5053674;28;870;-70
2023/05/05 12:19:07;;;;;;;;;;;;;;;;;;5053854;28;908;-69
2023/05/05 12:21:33;;;;;;;;;;;;;;;;;;5068897;28;943;-69
2023/05/05 12:23:59;;;;;;;;;;;;;;;;;;5053968;28;927;-70
2023/05/05 12:26:26;;;;;;;;;;;;;;;;;;5085750;28;1372;-69
2023/05/05 12:28:52;;;;;;;;;;;;;;;;;;5053872;28;848;-69
2023/05/05 12:31:17;;;;;;;;;;;;;;;;;;5085595;28;1955;-69
2023/05/05 12:33:43;;;;;;;;;;;;;;;;;;5069458;28;904;-70
2023/05/05 12:36:08;;;;;;;;;;;;;;;;;;5085634;28;1209;-69
2023/05/05 12:38:34;;;;;;;;;;;;;;;;;;5053155;28;836;-69
2023/05/05 12:40:59;;;;;;;;;;;;;;;;;;5068643;28;1197;-70
2023/05/05 12:43:26;;;;;;;;;;;;;;;;;;5052724;28;872;-69
2023/05/05 12:46:05;;;;;;;;;;;;;;;;;;5085231;28;1646;-70
2023/05/05 12:48:31;;;;;;;;;;;;;;;;;;5052384;28;1129;-70
2023/05/05 12:51:30;;;;;;;;;;;;;;;;;;5085307;28;1917;-69
2023/05/05 12:54:05;;;;;;;;;;;;;;;;;;5062049;28;1356;-69
2023/05/05 12:56:33;;;;;;;;;;;;;;;;;;5069522;28;1185;-70
2023/05/05 12:59:06;;;;;;;;;;;;;;;;;;5055884;28;915;-69
2023/05/05 13:01:32;;;;;;;;;;;;;;;;;;5086737;28;1229;-69
2023/05/05 13:04:03;;;;;;;;;;;;;;;;;;5048591;28;1232;-69
2023/05/05 13:06:29;;;;;;;;;;;;;;;;;;5050298;28;1173;-69
2023/05/05 13:08:55;;;;;;;;;;;;;;;;;;5069792;28;1466;-69
2023/05/05 13:11:20;;;;;;;;;;;;;;;;;;5055136;28;1910;-69
2023/05/05 13:13:46;;;;;;;;;;;;;;;;;;5073269;28;841;-69
2023/05/05 13:16:11;;;;;;;;;;;;;;;;;;5056429;28;1175;-69
2023/05/05 13:18:46;;;;;;;;;;;;;;;;;;5089012;28;1344;-69
2023/05/05 13:21:11;;;;;;;;;;;;;;;;;;5058407;28;979;-70
2023/05/05 13:23:36;;;;;;;;;;;;;;;;;;5089262;28;1206;-69
2023/05/05 13:26:02;;;;;;;;;;;;;;;;;;5089056;28;1876;-69
2023/05/05 13:28:28;;;;;;;;;;;;;;;;;;5069884;28;1485;-69
2023/05/05 13:30:54;;;;;;;;;;;;;;;;;;5081351;28;1979;-69
2023/05/05 13:33:19;;;;;;;;;;;;;;;;;;5051966;28;1108;-69
2023/05/05 13:35:45;;;;;;;;;;;;;;;;;;5053091;28;1383;-69
2023/05/05 13:38:10;;;;;;;;;;;;;;;;;;5084928;28;1545;-69
2023/05/05 13:40:36;;;;;;;;;;;;;;;;;;5052841;28;1156;-69
2023/05/05 13:43:01;;;;;;;;;;;;;;;;;;5053462;28;845;-69
2023/05/05 13:45:26;;;;;;;;;;;;;;;;;;5052869;28;923;-69
2023/05/05 13:47:52;;;;;;;;;;;;;;;;;;5068699;28;880;-69
2023/05/05 13:50:17;;;;;;;;;;;;;;;;;;5068146;28;1910;-70
2023/05/05 13:52:43;;;;;;;;;;;;;;;;;;5068586;28;867;-69
2023/05/05 13:55:09;;;;;;;;;;;;;;;;;;5052206;28;926;-69
2023/05/05 13:57:34;;;;;;;;;;;;;;;;;;5052267;28;951;-69
2023/05/05 14:00:00;;;;;;;;;;;;;;;;;;5069616;28;1227;-69
2023/05/05 14:02:25;;;;;;;;;;;;;;;;;;5055653;28;1207;-69
2023/05/05 14:04:50;;;;;;;;;;;;;;;;;;5071886;28;1156;-69
2023/05/05 14:07:16;;;;;;;;;;;;;;;;;;5072302;28;892;-69
2023/05/05 14:09:41;;;;;;;;;;;;;;;;;;5072580;28;1965;-69
2023/05/05 14:12:06;;;;;;;;;;;;;;;;;;5071655;28;1223;-68
2023/05/05 14:14:33;;;;;;;;;;;;;;;;;;5056568;28;892;-69
2023/05/05 14:16:58;;;;;;;;;;;;;;;;;;5071712;28;1274;-69
2023/05/05 14:19:23;;;;;;;;;;;;;;;;;;5054945;28;1156;-69
2023/05/05 14:21:48;;;;;;;;;;;;;;;;;;5069998;28;1003;-61
2023/05/05 14:24:14;;;;;;;;;;;;;;;;;;5054999;28;1058;-61
2023/05/05 14:26:39;;;;;;;;;;;;;;;;;;5079013;28;1269;-61
2023/05/05 14:29:05;;;;;;;;;;;;;;;;;;5087589;28;1324;-61
2023/05/05 14:31:30;;;;;;;;;;;;;;;;;;5061699;28;1886;-62
2023/05/05 14:33:55;;;;;;;;;;;;;;;;;;5051908;28;917;-62
2023/05/05 14:36:22;;;;;;;;;;;;;;;;;;5067356;28;1174;-67
2023/05/05 14:38:47;;;;;;;;;;;;;;;;;;5088234;28;1317;-69
2023/05/05 14:41:12;;;;;;;;;;;;;;;;;;5056292;28;896;-69
2023/05/05 14:43:38;;;;;;;;;;;;;;;;;;5070675;28;1271;-69
2023/05/05 14:46:05;;;;;;;;;;;;;;;;;;5071274;28;1169;-70
2023/05/05 14:48:31;;;;;;;;;;;;;;;;;;5087865;28;1229;-69
2023/05/05 14:50:57;;;;;;;;;;;;;;;;;;5056356;28;1898;-68
2023/05/05 14:53:22;;;;;;;;;;;;;;;;;;5087577;28;1241;-68
2023/05/05 14:55:47;;;;;;;;;;;;;;;;;;5068578;28;1172;-70
2023/05/05 14:58:12;;;;;;;;;;;;;;;;;;5066019;28;1168;-70
2023/05/05 15:00:38;;;;;;;;;;;;;;;;;;5040143;28;1137;-70
2023/05/05 15:03:03;;;;;;;;;;;;;;;;;;5047587;28;1145;-71
2023/05/05 15:05:28;;;;;;;;;;;;;;;;;;5088140;28;1234;-70
2023/05/05 15:07:54;;;;;;;;;;;;;;;;;;5056333;28;956;-71
2023/05/05 15:10:19;;;;;;;;;;;;;;;;;;5070516;28;1906;-70
2023/05/05 15:12:45;;;;;;;;;;;;;;;;;;5050564;28;1105;-70
2023/05/05 15:15:10;;;;;;;;;;;;;;;;;;5053641;28;1262;-71
2023/05/05 15:17:37;;;;;;;;;;;;;;;;;;5035976;28;1093;-71
2023/05/05 15:20:03;;;;;;;;;;;;;;;;;;5088120;28;1241;-70
2023/05/05 15:22:29;;;;;;;;;;;;;;;;;;5088361;28;1233;-71
2023/05/05 15:24:54;;;;;;;;;;;;;;;;;;5071823;28;841;-71
2023/05/05 15:27:19;;;;;;;;;;;;;;;;;;5055934;28;878;-70
2023/05/05 15:29:45;;;;;;;;;;;;;;;;;;5088039;28;1899;-70
2023/05/05 15:32:10;;;;;;;;;;;;;;;;;;5071885;28;1105;-70
2023/05/05 15:34:36;;;;;;;;;;;;;;;;;;5070574;28;943;-70
2023/05/05 15:37:01;;;;;;;;;;;;;;;;;;5055515;28;882;-70
2023/05/05 15:39:26;;;;;;;;;;;;;;;;;;5070327;28;1166;-71
2023/05/05 15:41:52;;;;;;;;;;;;;;;;;;5055517;28;832;-70
2023/05/05 15:44:17;;;;;;;;;;;;;;;;;;5055558;28;908;-70
2023/05/05 15:46:42;;;;;;;;;;;;;;;;;;5055557;28;833;-70
2023/05/05 15:49:07;;;;;;;;;;;;;;;;;;5055816;28;903;-70
2023/05/05 15:51:33;;;;;;;;;;;;;;;;;;5054992;28;1905;-71
2023/05/05 15:53:59;;;;;;;;;;;;;;;;;;5055443;28;1029;-70
2023/05/05 15:56:26;;;;;;;;;;;;;;;;;;5070184;28;1513;-70
2023/05/05 15:58:51;;;;;;;;;;;;;;;;;;5071113;28;1193;-70
2023/05/05 16:01:16;;;;;;;;;;;;;;;;;;5055335;28;875;-70
2023/05/05 16:03:42;;;;;;;;;;;;;;;;;;5054512;28;907;-71
2023/05/05 16:06:10;;;;;;;;;;;;;;;;;;5054769;28;888;-70
2023/05/05 16:08:35;;;;;;;;;;;;;;;;;;5054387;28;825;-70
2023/05/05 16:11:00;;;;;;;;;;;;;;;;;;5054301;28;1909;-71
2023/05/05 16:13:26;;;;;;;;;;;;;;;;;;5054010;28;869;-70
2023/05/05 16:15:51;;;;;;;;;;;;;;;;;;5070371;28;1440;-72
2023/05/05 16:18:17;;;;;;;;;;;;;;;;;;5051933;28;921;-72
2023/05/05 16:20:42;;;;;;;;;;;;;;;;;;5068395;28;1367;-71
2023/05/05 16:23:07;;;;;;;;;;;;;;;;;;5068630;28;1249;-72
2023/05/05 16:25:33;;;;;;;;;;;;;;;;;;5069029;28;829;-71
2023/05/05 16:27:59;;;;;;;;;;;;;;;;;;5053962;28;931;-71
2023/05/05 16:30:24;;;;;;;;;;;;;;;;;;5053843;28;1976;-72
2023/05/05 16:32:50;;;;;;;;;;;;;;;;;;5053487;28;805;-72
2023/05/05 16:35:16;;;;;;;;;;;;;;;;;;5069100;28;925;-71
2023/05/05 16:37:41;;;;;;;;;;;;;;;;;;5053270;28;856;-70
2023/05/05 16:40:07;;;;;;;;;;;;;;;;;;5068801;28;1185;-68
2023/05/05 16:42:32;;;;;;;;;;;;;;;;;;5085628;28;1229;-68
2023/05/05 16:44:57;;;;;;;;;;;;;;;;;;5053240;28;991;-69
2023/05/05 16:47:23;;;;;;;;;;;;;;;;;;5053307;28;917;-68
2023/05/05 16:49:48;;;;;;;;;;;;;;;;;;5053092;28;1910;-69
2023/05/05 16:52:13;;;;;;;;;;;;;;;;;;5053386;28;848;-70
2023/05/05 16:54:38;;;;;;;;;;;;;;;;;;5052838;28;829;-70
2023/05/05 16:57:04;;;;;;;;;;;;;;;;;;5053804;28;979;-71
2023/05/05 16:59:29;;;;;;;;;;;;;;;;;;5068558;28;1257;-70
2023/05/05 17:01:56;;;;;;;;;;;;;;;;;;5085256;28;1312;-71
2023/05/05 17:04:21;;;;;;;;;;;;;;;;;;5069179;28;1236;-69
2023/05/05 17:06:46;;;;;;;;;;;;;;;;;;5068884;28;825;-69
2023/05/05 17:09:11;;;;;;;;;;;;;;;;;;5052795;28;1359;-68